Time;durP1;ratioP1;P1;durP2;ratioP2;P2;SDS_P1;SDS_P2;PMS_P1;PMS_P2;Temp;Humidity;BMP_temperature;BMP_pressure;BME280_temperature;BME280_humidity;BME280_pressure;Samples;Min_cycle;Max_cycle;Signal;HPM_P1;HPM_P2
2022/01/19 00:00:52;;;;;;;31.33;13.20;;;;;;;;;;5052988;28;20111;-88
2022/01/19 00:03:18;;;;;;;39.60;14.07;;;;;;;;;;5055294;28;20601;-88
2022/01/19 00:05:44;;;;;;;31.90;14.05;;;;;;;;;;5036430;28;20052;-90
2022/01/19 00:08:16;;;;;;;35.17;14.15;;;;;;;;;;5045803;28;20041;-89
2022/01/19 00:10:41;;;;;;;37.45;13.65;;;;;;;;;;5036611;28;20033;-89
2022/01/19 00:13:06;;;;;;;38.15;13.75;;;;;;;;;;5037015;28;20547;-89
2022/01/19 00:15:32;;;;;;;36.88;13.48;;;;;;;;;;5042467;28;20068;-88
2022/01/19 00:17:59;;;;;;;34.97;13.48;;;;;;;;;;5030798;28;20029;-89
2022/01/19 00:20:26;;;;;;;30.83;13.23;;;;;;;;;;5027575;28;20123;-88
2022/01/19 00:22:51;;;;;;;35.45;13.35;;;;;;;;;;5030844;28;20037;-89
2022/01/19 00:25:18;;;;;;;40.15;12.32;;;;;;;;;;5069119;28;20063;-88
2022/01/19 00:27:44;;;;;;;35.28;14.48;;;;;;;;;;5053082;28;20029;-89
2022/01/19 00:30:09;;;;;;;32.08;13.15;;;;;;;;;;5034871;28;20043;-88
2022/01/19 00:32:35;;;;;;;31.05;13.32;;;;;;;;;;5029155;28;20033;-89
2022/01/19 00:35:01;;;;;;;36.10;14.45;;;;;;;;;;5049101;28;20029;-89
2022/01/19 00:37:26;;;;;;;37.60;14.50;;;;;;;;;;5032807;28;20044;-89
2022/01/19 00:39:52;;;;;;;41.75;15.63;;;;;;;;;;5037346;28;20033;-89
2022/01/19 00:42:18;;;;;;;32.72;13.63;;;;;;;;;;5034521;28;20877;-90
2022/01/19 00:44:44;;;;;;;35.10;14.45;;;;;;;;;;5031148;28;20026;-89
2022/01/19 00:47:09;;;;;;;34.22;13.00;;;;;;;;;;5063423;28;20021;-90
2022/01/19 00:49:35;;;;;;;39.85;14.32;;;;;;;;;;5032379;28;20076;-89
2022/01/19 00:52:00;;;;;;;35.13;13.95;;;;;;;;;;5052258;28;20040;-89
2022/01/19 00:54:26;;;;;;;36.78;15.02;;;;;;;;;;5046565;28;20025;-89
2022/01/19 00:56:51;;;;;;;39.97;13.25;;;;;;;;;;5049662;28;20033;-88
2022/01/19 00:59:17;;;;;;;38.63;14.65;;;;;;;;;;5059344;28;20409;-89
2022/01/19 01:01:42;;;;;;;40.85;14.98;;;;;;;;;;5048034;28;20041;-90
2022/01/19 01:04:07;;;;;;;36.42;14.60;;;;;;;;;;5050285;28;20094;-89
2022/01/19 01:06:33;;;;;;;38.75;14.48;;;;;;;;;;5067025;28;20028;-88
2022/01/19 01:08:58;;;;;;;42.65;15.95;;;;;;;;;;5055204;28;20059;-89
2022/01/19 01:11:29;;;;;;;42.33;16.02;;;;;;;;;;5053649;28;20052;-89
2022/01/19 01:16:40;;;;;;;39.65;16.80;;;;;;;;;;5042266;28;20025;-89
2022/01/19 01:19:10;;;;;;;41.10;15.38;;;;;;;;;;5046758;28;20025;-89
2022/01/19 01:21:36;;;;;;;38.13;15.70;;;;;;;;;;5046085;28;20036;-89
2022/01/19 01:24:03;;;;;;;43.20;15.80;;;;;;;;;;5030989;28;20115;-90
2022/01/19 01:26:28;;;;;;;41.58;16.63;;;;;;;;;;5046308;28;20032;-90
2022/01/19 01:28:54;;;;;;;38.65;14.60;;;;;;;;;;5050697;28;20059;-89
2022/01/19 01:31:19;;;;;;;34.08;14.07;;;;;;;;;;5058288;28;20139;-89
2022/01/19 01:33:44;;;;;;;35.10;14.00;;;;;;;;;;5064261;28;20041;-89
2022/01/19 01:36:10;;;;;;;36.70;15.85;;;;;;;;;;5048289;28;20028;-89
2022/01/19 01:38:37;;;;;;;42.88;15.05;;;;;;;;;;5065980;28;20095;-89
2022/01/19 01:41:03;;;;;;;42.80;15.20;;;;;;;;;;5046075;28;20557;-90
2022/01/19 01:43:29;;;;;;;36.63;15.13;;;;;;;;;;5048088;28;20583;-89
2022/01/19 01:46:01;;;;;;;37.92;15.05;;;;;;;;;;5044636;28;20037;-90
2022/01/19 01:48:26;;;;;;;39.92;15.60;;;;;;;;;;5028813;28;20638;-91
2022/01/19 01:53:36;;;;;;;39.38;15.27;;;;;;;;;;5044628;28;20040;-91
2022/01/19 01:56:10;;;;;;;39.50;15.13;;;;;;;;;;5038773;28;20087;-90
2022/01/19 01:58:42;;;;;;;36.97;14.10;;;;;;;;;;5055640;28;20029;-91
2022/01/19 02:01:08;;;;;;;39.45;15.73;;;;;;;;;;5050481;28;20797;-91
2022/01/19 02:03:39;;;;;;;36.40;14.65;;;;;;;;;;5044284;28;21495;-89
2022/01/19 02:08:51;;;;;;;33.00;13.55;;;;;;;;;;5048984;28;20187;-92
2022/01/19 02:21:38;;;;;;;27.30;10.00;;;;;;;;;;5044776;28;20082;-91
2022/01/19 02:22:04;;;;;;;;;;;;;;;;;;5048747;28;20422;-93
2022/01/19 02:24:40;;;;;;;23.85;9.27;;;;;;;;;;5032576;28;19966;-91
2022/01/19 02:28:56;;;;;;;26.73;10.32;;;;;;;;;;5032911;28;20029;-91
2022/01/19 02:40:51;;;;;;;29.48;11.02;;;;;;;;;;5065894;28;20055;-92
2022/01/19 02:43:22;;;;;;;25.90;11.55;;;;;;;;;;5042620;28;20040;-94
2022/01/19 02:51:17;;;;;;;22.40;10.20;;;;;;;;;;5033457;28;20512;-93
2022/01/19 02:53:42;;;;;;;26.35;11.10;;;;;;;;;;5055320;28;20482;-92
2022/01/19 02:56:18;;;;;;;25.88;9.65;;;;;;;;;;5027569;28;20079;-91
2022/01/19 02:58:46;;;;;;;22.52;9.48;;;;;;;;;;5045315;28;20371;-92
2022/01/19 03:09:24;;;;;;;23.33;9.52;;;;;;;;;;5050689;28;20091;-91
2022/01/19 03:11:50;;;;;;;19.35;8.65;;;;;;;;;;5030827;28;20056;-92
2022/01/19 03:14:17;;;;;;;21.42;9.05;;;;;;;;;;5029399;28;20076;-92
2022/01/19 03:16:43;;;;;;;30.40;12.52;;;;;;;;;;5033044;28;20045;-92
2022/01/19 03:19:09;;;;;;;24.85;10.25;;;;;;;;;;5043438;28;20029;-91
2022/01/19 03:21:35;;;;;;;16.27;7.50;;;;;;;;;;5039651;28;20045;-92
2022/01/19 03:24:01;;;;;;;22.88;10.38;;;;;;;;;;5034592;28;20036;-91
2022/01/19 03:26:27;;;;;;;19.85;6.93;;;;;;;;;;5026998;28;20129;-91
2022/01/19 03:28:53;;;;;;;24.08;10.38;;;;;;;;;;5030608;28;20186;-92
2022/01/19 03:31:18;;;;;;;23.42;10.20;;;;;;;;;;5052599;28;20116;-91
2022/01/19 03:33:44;;;;;;;27.20;11.05;;;;;;;;;;5035128;28;20799;-91
2022/01/19 03:36:09;;;;;;;25.25;10.63;;;;;;;;;;5033037;28;20476;-92
2022/01/19 03:38:35;;;;;;;28.00;11.15;;;;;;;;;;5033647;28;20048;-92
2022/01/19 03:41:00;;;;;;;25.92;11.02;;;;;;;;;;5032014;28;20044;-92
2022/01/19 03:43:26;;;;;;;25.73;10.45;;;;;;;;;;5043227;28;20142;-91
2022/01/19 03:45:53;;;;;;;23.67;11.38;;;;;;;;;;5047916;28;20380;-91
2022/01/19 03:48:45;;;;;;;31.58;11.43;;;;;;;;;;5063876;28;20032;-92
2022/01/19 03:51:10;;;;;;;30.40;11.57;;;;;;;;;;5048340;28;20017;-92
2022/01/19 03:53:36;;;;;;;27.45;11.75;;;;;;;;;;5049138;28;20033;-91
2022/01/19 03:56:02;;;;;;;27.90;11.35;;;;;;;;;;5048160;28;20480;-91
2022/01/19 03:58:27;;;;;;;26.60;11.27;;;;;;;;;;5052694;28;20045;-91
2022/01/19 04:00:55;;;;;;;26.05;10.80;;;;;;;;;;5048651;28;20041;-91
2022/01/19 04:03:28;;;;;;;20.33;10.05;;;;;;;;;;5049931;28;20048;-93
2022/01/19 04:06:02;;;;;;;29.77;11.70;;;;;;;;;;5046794;28;20073;-92
2022/01/19 04:08:27;;;;;;;20.90;10.48;;;;;;;;;;5049039;28;20298;-92
2022/01/19 04:10:53;;;;;;;29.35;12.10;;;;;;;;;;5051894;28;20037;-92
2022/01/19 04:15:52;;;;;;;26.25;11.40;;;;;;;;;;5051767;28;20053;-93
2022/01/19 04:18:18;;;;;;;27.90;11.75;;;;;;;;;;5052594;28;20031;-91
2022/01/19 04:20:48;;;;;;;25.98;10.80;;;;;;;;;;5049512;28;20088;-91
2022/01/19 04:23:14;;;;;;;26.45;11.38;;;;;;;;;;5044639;28;20101;-92
2022/01/19 04:25:39;;;;;;;26.23;11.10;;;;;;;;;;5046853;28;20042;-91
2022/01/19 04:28:07;;;;;;;24.00;10.52;;;;;;;;;;5048202;28;20498;-93
2022/01/19 04:30:34;;;;;;;24.20;11.40;;;;;;;;;;5047542;28;20415;-91
2022/01/19 04:33:13;;;;;;;26.83;11.40;;;;;;;;;;5049834;28;20563;-91
2022/01/19 04:35:50;;;;;;;27.17;11.68;;;;;;;;;;5049696;28;20490;-91
2022/01/19 04:54:35;;;;;;;24.40;11.10;;;;;;;;;;5048626;28;20032;-92
2022/01/19 05:07:27;;;;;;;26.20;11.23;;;;;;;;;;5049844;28;20037;-93
2022/01/19 05:15:04;;;;;;;25.38;10.27;;;;;;;;;;5049779;28;20124;-93
2022/01/19 05:17:29;;;;;;;26.35;11.02;;;;;;;;;;5046016;28;20045;-93
2022/01/19 05:19:54;;;;;;;23.27;10.77;;;;;;;;;;5045934;28;20106;-92
2022/01/19 05:22:20;;;;;;;23.30;11.13;;;;;;;;;;5045457;28;20394;-92
2022/01/19 05:24:46;;;;;;;25.10;9.95;;;;;;;;;;5045759;28;20076;-93
2022/01/19 05:27:11;;;;;;;22.70;10.52;;;;;;;;;;5047250;28;20618;-92
2022/01/19 05:29:37;;;;;;;22.52;10.13;;;;;;;;;;5046965;28;20045;-91
2022/01/19 05:32:02;;;;;;;25.98;9.57;;;;;;;;;;5049667;28;20032;-92
2022/01/19 05:34:28;;;;;;;21.30;10.50;;;;;;;;;;5040969;28;20047;-92
2022/01/19 05:36:53;;;;;;;24.48;10.32;;;;;;;;;;5062708;28;20477;-93
2022/01/19 05:39:18;;;;;;;20.70;9.70;;;;;;;;;;5032451;28;20445;-94
2022/01/19 05:41:44;;;;;;;23.48;10.75;;;;;;;;;;5051134;28;20049;-92
2022/01/19 05:44:09;;;;;;;26.80;11.30;;;;;;;;;;5050718;28;20032;-92
2022/01/19 05:46:35;;;;;;;20.25;10.00;;;;;;;;;;5048575;28;20034;-92
2022/01/19 05:49:01;;;;;;;26.77;11.35;;;;;;;;;;5047476;28;20037;-91
2022/01/19 05:51:27;;;;;;;23.60;10.68;;;;;;;;;;5044738;28;20070;-93
2022/01/19 05:53:52;;;;;;;24.80;10.48;;;;;;;;;;5047572;28;20025;-93
2022/01/19 05:56:17;;;;;;;30.40;11.52;;;;;;;;;;5042239;28;20056;-93
2022/01/19 05:58:43;;;;;;;24.35;11.10;;;;;;;;;;5047269;28;20033;-92
2022/01/19 06:01:08;;;;;;;26.45;12.00;;;;;;;;;;5046642;28;20041;-93
2022/01/19 06:06:11;;;;;;;28.77;10.73;;;;;;;;;;5007145;28;20735;-69
2022/01/19 06:08:42;;;;;;;22.95;9.82;;;;;;;;;;5005733;28;20038;-70
2022/01/19 06:11:08;;;;;;;21.40;10.85;;;;;;;;;;4984147;28;20034;-70
2022/01/19 06:13:34;;;;;;;22.05;9.73;;;;;;;;;;5002127;28;20034;-70
2022/01/19 06:16:00;;;;;;;24.35;9.95;;;;;;;;;;4965814;28;20501;-70
2022/01/19 06:18:25;;;;;;;24.90;11.50;;;;;;;;;;4980777;28;20061;-70
2022/01/19 06:20:51;;;;;;;22.23;10.20;;;;;;;;;;4981616;28;20022;-70
2022/01/19 06:23:16;;;;;;;24.27;11.38;;;;;;;;;;4984404;28;20441;-70
2022/01/19 06:25:41;;;;;;;23.65;10.55;;;;;;;;;;4986913;28;20696;-70
2022/01/19 06:28:07;;;;;;;27.27;11.15;;;;;;;;;;4980996;28;20080;-70
2022/01/19 06:30:33;;;;;;;25.98;10.80;;;;;;;;;;4965966;28;20149;-70
2022/01/19 06:32:58;;;;;;;29.10;11.38;;;;;;;;;;5001682;28;20455;-70
2022/01/19 06:35:23;;;;;;;27.65;11.55;;;;;;;;;;4999147;28;20049;-71
2022/01/19 06:37:49;;;;;;;27.58;11.60;;;;;;;;;;5003713;28;20044;-71
2022/01/19 06:40:16;;;;;;;23.73;10.48;;;;;;;;;;5002589;28;20124;-71
2022/01/19 06:42:42;;;;;;;25.77;10.82;;;;;;;;;;5006755;28;20065;-71
2022/01/19 06:45:08;;;;;;;24.20;11.10;;;;;;;;;;4986641;28;20073;-68
2022/01/19 06:47:34;;;;;;;58.20;23.80;;;;;;;;;;5001897;28;20057;-70
2022/01/19 06:49:59;;;;;;;34.97;14.48;;;;;;;;;;5002008;28;20038;-71
2022/01/19 06:52:24;;;;;;;30.83;11.80;;;;;;;;;;5001543;28;20038;-71
2022/01/19 06:54:50;;;;;;;26.33;10.90;;;;;;;;;;5000857;28;20041;-70
2022/01/19 06:57:15;;;;;;;24.65;11.57;;;;;;;;;;5005582;28;20034;-70
2022/01/19 06:59:41;;;;;;;32.42;12.63;;;;;;;;;;5004158;28;20034;-71
2022/01/19 07:02:06;;;;;;;31.67;14.85;;;;;;;;;;4989186;28;20039;-70
2022/01/19 07:04:32;;;;;;;27.30;12.48;;;;;;;;;;4989298;28;20061;-71
2022/01/19 07:06:57;;;;;;;26.30;12.38;;;;;;;;;;4990973;28;20129;-69
2022/01/19 07:09:23;;;;;;;30.02;13.27;;;;;;;;;;4983367;28;20034;-70
2022/01/19 07:11:49;;;;;;;33.15;14.70;;;;;;;;;;4985757;28;20034;-70
2022/01/19 07:14:14;;;;;;;27.42;13.02;;;;;;;;;;4983221;28;20050;-70
2022/01/19 07:16:40;;;;;;;28.45;12.98;;;;;;;;;;4986192;28;20122;-68
2022/01/19 07:19:06;;;;;;;33.63;12.55;;;;;;;;;;4992147;28;20038;-70
2022/01/19 07:21:31;;;;;;;36.47;16.98;;;;;;;;;;4989010;28;20034;-70
2022/01/19 07:23:57;;;;;;;23.88;10.27;;;;;;;;;;4985512;28;20432;-70
2022/01/19 07:26:22;;;;;;;32.75;14.18;;;;;;;;;;4982480;28;20050;-71
2022/01/19 07:28:48;;;;;;;27.48;12.85;;;;;;;;;;4985935;28;20050;-70
2022/01/19 07:31:14;;;;;;;28.25;12.52;;;;;;;;;;4984158;28;20050;-70
2022/01/19 07:33:39;;;;;;;29.17;12.63;;;;;;;;;;5001559;28;20053;-71
2022/01/19 07:36:04;;;;;;;30.85;13.02;;;;;;;;;;5002499;28;20034;-70
2022/01/19 07:38:30;;;;;;;38.85;14.60;;;;;;;;;;4990732;28;20042;-71
2022/01/19 07:40:55;;;;;;;33.58;14.70;;;;;;;;;;4974261;28;20046;-70
2022/01/19 07:43:21;;;;;;;30.42;13.10;;;;;;;;;;4985816;28;20777;-69
2022/01/19 07:45:46;;;;;;;27.40;13.30;;;;;;;;;;4960145;28;20129;-70
2022/01/19 07:48:12;;;;;;;31.08;13.93;;;;;;;;;;4983977;28;20026;-70
2022/01/19 07:50:38;;;;;;;33.33;14.50;;;;;;;;;;4981032;28;20042;-71
2022/01/19 07:53:04;;;;;;;32.42;13.65;;;;;;;;;;4994487;28;20477;-70
2022/01/19 07:55:29;;;;;;;30.02;13.45;;;;;;;;;;4988713;28;20070;-72
2022/01/19 07:57:55;;;;;;;29.50;13.13;;;;;;;;;;4984895;28;20061;-72
2022/01/19 08:00:20;;;;;;;29.95;13.20;;;;;;;;;;4981855;28;20030;-71
2022/01/19 08:02:46;;;;;;;34.22;14.57;;;;;;;;;;4998062;28;20042;-71
2022/01/19 08:05:11;;;;;;;32.33;14.27;;;;;;;;;;4982779;28;20516;-71
2022/01/19 08:07:37;;;;;;;33.00;12.55;;;;;;;;;;4988719;28;20433;-71
2022/01/19 08:10:07;;;;;;;35.42;13.75;;;;;;;;;;4989186;28;20092;-72
2022/01/19 08:12:32;;;;;;;31.23;13.38;;;;;;;;;;5001999;28;20030;-71
2022/01/19 08:14:58;;;;;;;33.53;14.23;;;;;;;;;;4988076;28;20072;-72
2022/01/19 08:17:26;;;;;;;29.30;14.02;;;;;;;;;;4987660;28;20072;-73
2022/01/19 08:19:52;;;;;;;32.85;13.43;;;;;;;;;;4983537;28;20038;-69
2022/01/19 08:22:18;;;;;;;27.83;12.82;;;;;;;;;;4990229;28;20092;-70
2022/01/19 08:24:43;;;;;;;29.80;13.05;;;;;;;;;;4994684;28;20065;-73
2022/01/19 08:27:09;;;;;;;31.98;12.90;;;;;;;;;;5007293;28;20061;-71
2022/01/19 08:29:34;;;;;;;34.47;13.60;;;;;;;;;;5007716;28;20099;-71
2022/01/19 08:31:59;;;;;;;31.00;13.95;;;;;;;;;;5007816;28;20419;-72
2022/01/19 08:34:25;;;;;;;36.38;13.98;;;;;;;;;;5007819;28;20510;-72
2022/01/19 08:36:50;;;;;;;32.05;14.30;;;;;;;;;;4997793;28;20049;-71
2022/01/19 08:39:16;;;;;;;31.83;13.75;;;;;;;;;;4985066;28;20080;-71
2022/01/19 08:41:41;;;;;;;30.55;13.38;;;;;;;;;;4988536;28;20030;-73
2022/01/19 08:44:06;;;;;;;34.08;14.55;;;;;;;;;;4971170;28;20129;-69
2022/01/19 08:46:32;;;;;;;34.28;14.05;;;;;;;;;;4980031;28;20045;-70
2022/01/19 08:48:57;;;;;;;32.53;13.32;;;;;;;;;;4980058;28;20600;-72
2022/01/19 08:51:23;;;;;;;38.00;14.73;;;;;;;;;;4982141;28;20435;-70
2022/01/19 08:53:48;;;;;;;34.75;13.57;;;;;;;;;;4983056;28;20465;-68
2022/01/19 08:56:13;;;;;;;33.40;13.45;;;;;;;;;;4981982;28;20045;-70
2022/01/19 08:58:39;;;;;;;32.78;13.88;;;;;;;;;;4980907;28;20042;-69
2022/01/19 09:01:04;;;;;;;26.77;12.90;;;;;;;;;;4981238;28;20050;-67
2022/01/19 09:03:30;;;;;;;30.55;13.65;;;;;;;;;;4980967;28;20097;-66
2022/01/19 09:05:56;;;;;;;26.33;11.75;;;;;;;;;;4981087;28;20125;-66
2022/01/19 09:08:21;;;;;;;32.85;13.75;;;;;;;;;;4990769;28;20049;-67
2022/01/19 09:10:50;;;;;;;37.03;14.23;;;;;;;;;;4981277;28;20042;-67
2022/01/19 09:13:16;;;;;;;28.55;12.82;;;;;;;;;;4988342;28;20034;-67
2022/01/19 09:15:42;;;;;;;31.45;13.20;;;;;;;;;;4993361;28;20058;-67
2022/01/19 09:18:07;;;;;;;32.30;13.43;;;;;;;;;;4994724;28;20030;-67
2022/01/19 09:20:32;;;;;;;30.67;12.55;;;;;;;;;;4982083;28;20032;-67
2022/01/19 09:22:58;;;;;;;35.58;13.20;;;;;;;;;;4979852;28;20053;-67
2022/01/19 09:25:23;;;;;;;28.20;12.60;;;;;;;;;;4982256;28;20042;-67
2022/01/19 09:27:48;;;;;;;31.95;12.65;;;;;;;;;;4986598;28;20038;-68
2022/01/19 09:30:18;;;;;;;35.35;15.13;;;;;;;;;;4981826;28;20586;-67
2022/01/19 09:32:49;;;;;;;33.20;14.40;;;;;;;;;;5002591;28;20042;-70
2022/01/19 09:35:22;;;;;;;32.83;13.77;;;;;;;;;;4983289;28;20045;-69
2022/01/19 09:37:48;;;;;;;34.05;14.35;;;;;;;;;;4972232;28;20480;-70
2022/01/19 09:40:13;;;;;;;39.38;13.98;;;;;;;;;;4979115;28;20061;-69
2022/01/19 09:42:38;;;;;;;35.42;14.77;;;;;;;;;;4984302;28;20153;-70
2022/01/19 09:45:04;;;;;;;34.35;14.38;;;;;;;;;;4985669;28;20101;-70
2022/01/19 09:47:29;;;;;;;35.35;15.32;;;;;;;;;;4997185;28;20038;-73
2022/01/19 09:49:55;;;;;;;34.53;14.02;;;;;;;;;;4984355;28;20157;-69
2022/01/19 09:52:20;;;;;;;33.38;14.60;;;;;;;;;;4979119;28;20034;-70
2022/01/19 09:54:46;;;;;;;34.92;14.45;;;;;;;;;;4977137;28;20053;-70
2022/01/19 09:57:11;;;;;;;39.53;14.52;;;;;;;;;;4978297;28;20030;-71
2022/01/19 09:59:37;;;;;;;33.55;14.93;;;;;;;;;;4979606;28;20034;-71
2022/01/19 10:02:08;;;;;;;32.60;13.77;;;;;;;;;;4980477;28;20042;-70
2022/01/19 10:04:44;;;;;;;34.60;13.55;;;;;;;;;;4976333;28;20046;-71
2022/01/19 10:07:31;;;;;;;32.90;14.68;;;;;;;;;;4978190;28;20069;-71
2022/01/19 10:10:06;;;;;;;40.25;13.57;;;;;;;;;;4976957;28;20452;-71
2022/01/19 10:18:21;;;;;;;33.88;13.07;;;;;;;;;;4980217;28;20084;-68
2022/01/19 10:21:06;;;;;;;39.13;14.30;;;;;;;;;;4993601;28;20594;-68
2022/01/19 10:23:33;;;;;;;32.50;13.90;;;;;;;;;;4976174;28;20034;-73
2022/01/19 10:26:00;;;;;;;36.88;14.18;;;;;;;;;;4977541;28;20081;-66
2022/01/19 10:28:26;;;;;;;29.38;12.82;;;;;;;;;;4974640;28;20599;-66
2022/01/19 10:30:52;;;;;;;33.88;14.02;;;;;;;;;;4979618;28;20060;-66
2022/01/19 10:33:18;;;;;;;35.20;14.43;;;;;;;;;;4977398;28;20044;-66
2022/01/19 10:35:47;;;;;;;35.13;13.38;;;;;;;;;;4980137;28;20026;-66
2022/01/19 10:38:18;;;;;;;32.85;12.90;;;;;;;;;;4979146;28;20061;-66
2022/01/19 10:40:55;;;;;;;35.65;13.95;;;;;;;;;;4977628;28;20061;-66
2022/01/19 10:43:34;;;;;;;33.13;13.55;;;;;;;;;;4976307;28;20047;-67
2022/01/19 10:46:21;;;;;;;31.98;13.73;;;;;;;;;;4978075;28;20061;-67
2022/01/19 10:48:46;;;;;;;38.95;14.50;;;;;;;;;;4972722;28;20049;-67
2022/01/19 10:51:18;;;;;;;31.38;11.65;;;;;;;;;;4984993;28;20117;-66
2022/01/19 10:53:47;;;;;;;33.75;13.85;;;;;;;;;;5005698;28;20153;-66
2022/01/19 10:56:29;;;;;;;32.28;13.48;;;;;;;;;;4996417;28;20042;-69
2022/01/19 10:59:00;;;;;;;29.43;13.50;;;;;;;;;;4982015;28;20099;-67
2022/01/19 11:01:39;;;;;;;32.28;13.40;;;;;;;;;;4997623;28;20042;-69
2022/01/19 11:04:23;;;;;;;35.05;14.43;;;;;;;;;;5001556;28;20290;-68
2022/01/19 11:06:52;;;;;;;34.20;14.57;;;;;;;;;;5010361;28;20046;-71
2022/01/19 11:09:22;;;;;;;35.67;13.30;;;;;;;;;;5007570;28;20032;-69
2022/01/19 11:11:48;;;;;;;35.58;15.07;;;;;;;;;;5003604;28;20033;-68
2022/01/19 11:14:15;;;;;;;35.60;14.23;;;;;;;;;;4994645;28;20026;-72
2022/01/19 11:16:42;;;;;;;36.75;14.52;;;;;;;;;;4987711;28;20468;-68
2022/01/19 11:19:07;;;;;;;39.97;15.30;;;;;;;;;;4981046;28;20583;-68
2022/01/19 11:21:41;;;;;;;32.83;13.88;;;;;;;;;;4966608;28;20057;-67
2022/01/19 11:24:34;;;;;;;38.25;16.40;;;;;;;;;;4998764;28;20125;-69
2022/01/19 11:27:01;;;;;;;31.60;14.37;;;;;;;;;;4998259;28;20542;-69
2022/01/19 11:29:27;;;;;;;43.88;17.38;;;;;;;;;;4984074;28;20282;-68
2022/01/19 11:31:54;;;;;;;33.13;14.27;;;;;;;;;;4982112;28;20048;-69
2022/01/19 11:34:49;;;;;;;33.10;14.63;;;;;;;;;;4977914;28;20050;-72
2022/01/19 11:37:31;;;;;;;34.78;14.38;;;;;;;;;;4974143;28;20526;-70
2022/01/19 11:40:06;;;;;;;39.25;15.20;;;;;;;;;;4974504;28;20117;-69
2022/01/19 11:42:32;;;;;;;39.50;14.60;;;;;;;;;;4974583;28;20034;-70
2022/01/19 11:44:57;;;;;;;35.65;15.73;;;;;;;;;;4973847;28;20030;-76
2022/01/19 11:47:25;;;;;;;33.58;14.70;;;;;;;;;;4975632;28;20057;-71
2022/01/19 11:50:03;;;;;;;38.78;16.05;;;;;;;;;;4980596;28;20111;-72
2022/01/19 11:52:37;;;;;;;33.53;14.85;;;;;;;;;;4986238;28;20132;-72
2022/01/19 11:55:18;;;;;;;36.25;15.85;;;;;;;;;;4987005;28;20100;-69
2022/01/19 11:57:46;;;;;;;32.42;14.80;;;;;;;;;;4996465;28;20056;-72
2022/01/19 12:00:21;;;;;;;39.95;15.80;;;;;;;;;;4999203;28;20037;-72
2022/01/19 12:02:53;;;;;;;36.08;15.00;;;;;;;;;;4978887;28;20054;-68
2022/01/19 12:05:39;;;;;;;38.63;17.55;;;;;;;;;;4982194;28;20073;-69
2022/01/19 12:08:34;;;;;;;44.13;16.67;;;;;;;;;;5004588;28;20127;-70
2022/01/19 12:11:11;;;;;;;40.78;18.08;;;;;;;;;;5001185;28;20124;-70
2022/01/19 12:17:09;;;;;;;45.08;19.55;;;;;;;;;;4980345;28;20050;-69
2022/01/19 12:19:06;;;;;;;50.95;20.83;;;;;;;;;;4976202;28;20051;-70
2022/01/19 12:21:31;;;;;;;39.35;17.05;;;;;;;;;;4980844;28;20041;-69
2022/01/19 12:24:19;;;;;;;38.25;16.85;;;;;;;;;;4981293;28;20042;-70
2022/01/19 12:27:14;;;;;;;31.15;13.38;;;;;;;;;;4977739;28;20058;-68
2022/01/19 12:29:46;;;;;;;38.67;15.65;;;;;;;;;;4998312;28;20047;-72
2022/01/19 12:32:18;;;;;;;34.85;13.82;;;;;;;;;;4986388;28;20066;-72
2022/01/19 12:34:46;;;;;;;32.80;15.05;;;;;;;;;;4982923;28;20070;-71
2022/01/19 12:37:13;;;;;;;35.92;14.57;;;;;;;;;;4978110;28;20043;-71
2022/01/19 12:39:43;;;;;;;38.33;15.23;;;;;;;;;;4979524;28;20157;-71
2022/01/19 12:42:15;;;;;;;36.65;16.45;;;;;;;;;;4981029;28;20065;-71
2022/01/19 12:44:57;;;;;;;36.67;16.15;;;;;;;;;;4975980;28;20081;-70
2022/01/19 12:47:28;;;;;;;38.15;16.00;;;;;;;;;;4982772;28;20051;-71
2022/01/19 12:50:16;;;;;;;34.45;14.23;;;;;;;;;;4986288;28;20053;-72
2022/01/19 12:52:43;;;;;;;34.45;14.43;;;;;;;;;;4980264;28;20614;-71
2022/01/19 12:55:15;;;;;;;41.45;15.95;;;;;;;;;;4986101;28;20049;-72
2022/01/19 12:57:41;;;;;;;37.42;15.95;;;;;;;;;;4979462;28;20046;-71
2022/01/19 13:00:10;;;;;;;35.95;15.85;;;;;;;;;;4983063;28;20056;-70
2022/01/19 13:02:36;;;;;;;34.95;14.82;;;;;;;;;;4985173;28;20561;-70
2022/01/19 13:05:05;;;;;;;30.95;13.88;;;;;;;;;;4985487;28;20038;-71
2022/01/19 13:07:34;;;;;;;38.92;16.20;;;;;;;;;;4986128;28;20050;-74
2022/01/19 13:10:35;;;;;;;36.60;14.65;;;;;;;;;;4979411;28;20079;-71
2022/01/19 13:13:11;;;;;;;40.92;16.42;;;;;;;;;;4978130;28;20217;-70
2022/01/19 13:15:47;;;;;;;42.42;17.15;;;;;;;;;;4973572;28;20046;-70
2022/01/19 13:18:16;;;;;;;37.92;16.15;;;;;;;;;;4992509;28;20038;-71
2022/01/19 13:20:53;;;;;;;35.83;16.17;;;;;;;;;;4982980;28;20042;-70
2022/01/19 13:23:19;;;;;;;37.90;16.58;;;;;;;;;;4979137;28;20038;-71
2022/01/19 13:25:54;;;;;;;42.83;18.15;;;;;;;;;;4978402;28;20117;-72
2022/01/19 13:28:30;;;;;;;40.20;17.35;;;;;;;;;;4977215;28;20049;-71
2022/01/19 13:30:58;;;;;;;39.22;15.80;;;;;;;;;;4981307;28;20046;-71
2022/01/19 13:33:24;;;;;;;40.83;15.25;;;;;;;;;;4980779;28;20496;-72
2022/01/19 13:36:01;;;;;;;36.20;14.60;;;;;;;;;;4979993;28;20077;-73
2022/01/19 13:38:27;;;;;;;46.08;16.58;;;;;;;;;;4980908;28;20043;-71
2022/01/19 13:41:05;;;;;;;40.85;16.77;;;;;;;;;;4992075;28;20046;-71
2022/01/19 13:43:33;;;;;;;38.28;16.25;;;;;;;;;;4981372;28;20139;-72
2022/01/19 13:46:02;;;;;;;38.90;15.50;;;;;;;;;;4978169;28;20539;-71
2022/01/19 13:48:28;;;;;;;48.08;16.73;;;;;;;;;;4983348;28;20034;-72
2022/01/19 13:51:02;;;;;;;42.22;16.08;;;;;;;;;;4979979;28;20180;-71
2022/01/19 13:53:34;;;;;;;48.80;15.77;;;;;;;;;;4983011;28;20038;-71
2022/01/19 13:56:01;;;;;;;41.78;16.13;;;;;;;;;;4983362;28;20105;-71
2022/01/19 13:58:52;;;;;;;38.28;15.40;;;;;;;;;;4993219;28;20145;-71
2022/01/19 14:01:23;;;;;;;41.78;16.50;;;;;;;;;;4980012;28;20957;-70
2022/01/19 14:04:03;;;;;;;39.35;15.90;;;;;;;;;;4978613;28;20070;-71
2022/01/19 14:06:31;;;;;;;41.22;16.63;;;;;;;;;;4980366;28;20030;-71
2022/01/19 14:09:15;;;;;;;40.78;16.20;;;;;;;;;;4980794;28;20122;-69
2022/01/19 14:12:03;;;;;;;49.17;16.00;;;;;;;;;;4981755;28;20062;-69
2022/01/19 14:14:39;;;;;;;38.33;15.05;;;;;;;;;;4985666;28;20546;-69
2022/01/19 14:17:09;;;;;;;41.13;15.43;;;;;;;;;;4979017;28;20080;-68
2022/01/19 14:19:46;;;;;;;37.88;15.93;;;;;;;;;;4980753;28;20052;-69
2022/01/19 14:22:22;;;;;;;45.88;17.70;;;;;;;;;;4979353;28;20074;-69
2022/01/19 14:24:59;;;;;;;48.90;16.80;;;;;;;;;;4960471;28;20050;-69
2022/01/19 14:27:25;;;;;;;35.78;13.88;;;;;;;;;;4963877;28;20029;-69
2022/01/19 14:30:10;;;;;;;52.75;16.83;;;;;;;;;;4981651;28;20030;-69
2022/01/19 14:32:38;;;;;;;49.38;18.25;;;;;;;;;;4977425;28;21001;-69
2022/01/19 14:35:35;;;;;;;37.30;14.38;;;;;;;;;;4977245;28;20046;-69
2022/01/19 14:38:06;;;;;;;46.75;17.50;;;;;;;;;;4978081;28;20918;-69
2022/01/19 14:40:36;;;;;;;41.15;16.67;;;;;;;;;;4976123;28;20046;-69
2022/01/19 14:43:01;;;;;;;43.42;17.77;;;;;;;;;;4980567;28;20049;-68
2022/01/19 14:45:34;;;;;;;42.80;16.88;;;;;;;;;;4977495;28;20034;-69
2022/01/19 14:47:59;;;;;;;44.13;16.90;;;;;;;;;;4984302;28;20698;-69
2022/01/19 14:50:36;;;;;;;40.00;15.00;;;;;;;;;;4968101;28;20041;-69
2022/01/19 14:53:03;;;;;;;46.03;16.83;;;;;;;;;;4981308;28;20058;-69
2022/01/19 14:55:31;;;;;;;40.70;16.23;;;;;;;;;;4968129;28;21179;-69
2022/01/19 14:58:00;;;;;;;47.15;16.75;;;;;;;;;;4982228;28;20796;-70
2022/01/19 15:00:30;;;;;;;42.38;16.30;;;;;;;;;;4979430;28;20034;-71
2022/01/19 15:03:01;;;;;;;41.80;16.73;;;;;;;;;;4999908;28;20074;-73
2022/01/19 15:05:27;;;;;;;40.05;15.30;;;;;;;;;;4998751;28;20058;-73
2022/01/19 15:07:53;;;;;;;51.80;16.55;;;;;;;;;;5005286;28;20103;-73
2022/01/19 15:10:21;;;;;;;36.63;14.73;;;;;;;;;;5005856;28;20047;-73
2022/01/19 15:12:51;;;;;;;40.28;15.82;;;;;;;;;;5001892;28;20420;-71
2022/01/19 15:15:17;;;;;;;44.50;15.60;;;;;;;;;;5000785;28;20129;-69
2022/01/19 15:17:42;;;;;;;40.53;16.80;;;;;;;;;;4983114;28;20128;-71
2022/01/19 15:20:09;;;;;;;41.70;16.98;;;;;;;;;;4998952;28;20507;-70
2022/01/19 15:22:34;;;;;;;45.30;17.52;;;;;;;;;;4998194;28;20039;-71
2022/01/19 15:25:01;;;;;;;44.05;16.42;;;;;;;;;;4974791;28;20397;-71
2022/01/19 15:27:27;;;;;;;48.92;17.92;;;;;;;;;;4973633;28;20522;-70
2022/01/19 15:29:52;;;;;;;47.63;15.98;;;;;;;;;;4977635;28;20039;-69
2022/01/19 15:32:19;;;;;;;47.45;17.58;;;;;;;;;;4983221;28;20073;-70
2022/01/19 15:34:44;;;;;;;45.33;16.25;;;;;;;;;;4982965;28;20077;-70
2022/01/19 15:37:10;;;;;;;46.75;16.75;;;;;;;;;;4979581;28;20120;-70
2022/01/19 15:39:38;;;;;;;44.28;16.80;;;;;;;;;;4989442;28;20133;-71
2022/01/19 15:42:04;;;;;;;46.30;17.40;;;;;;;;;;4986044;28;20026;-70
2022/01/19 15:44:29;;;;;;;47.85;17.13;;;;;;;;;;4990439;28;20094;-70
2022/01/19 15:46:55;;;;;;;46.10;16.50;;;;;;;;;;4968472;28;20052;-71
2022/01/19 15:49:20;;;;;;;44.50;16.58;;;;;;;;;;4981648;28;20050;-70
2022/01/19 15:51:46;;;;;;;55.38;17.00;;;;;;;;;;4985863;28;20431;-71
2022/01/19 15:54:14;;;;;;;45.75;16.52;;;;;;;;;;4991580;28;20022;-70